sensor_id;sensor_type;location;lat;lon;timestamp;temperature;humidity
58554;DHT22;48119;53.218;6.576;2022-12-04T00:01:07;5.60;93.80
58554;DHT22;48119;53.218;6.576;2022-12-04T00:03:33;5.70;93.80
58554;DHT22;48119;53.218;6.576;2022-12-04T00:08:33;5.50;93.60
58554;DHT22;48119;53.218;6.576;2022-12-04T00:10:58;5.60;93.70
58554;DHT22;48119;53.218;6.576;2022-12-04T00:13:25;5.60;93.70
58554;DHT22;48119;53.218;6.576;2022-12-04T00:15:51;5.60;93.70
58554;DHT22;48119;53.218;6.576;2022-12-04T00:18:17;5.60;93.70
58554;DHT22;48119;53.218;6.576;2022-12-04T00:20:43;5.60;93.70
58554;DHT22;48119;53.218;6.576;2022-12-04T00:23:09;5.60;93.70
58554;DHT22;48119;53.218;6.576;2022-12-04T00:25:35;5.60;93.60
58554;DHT22;48119;53.218;6.576;2022-12-04T00:28:00;5.70;93.60
58554;DHT22;48119;53.218;6.576;2022-12-04T00:30:26;5.60;93.60
58554;DHT22;48119;53.218;6.576;2022-12-04T00:32:52;5.60;93.60
58554;DHT22;48119;53.218;6.576;2022-12-04T00:35:18;5.60;93.60
58554;DHT22;48119;53.218;6.576;2022-12-04T00:37:44;5.60;93.60
58554;DHT22;48119;53.218;6.576;2022-12-04T00:40:10;5.60;93.80
58554;DHT22;48119;53.218;6.576;2022-12-04T00:42:36;5.60;93.50
58554;DHT22;48119;53.218;6.576;2022-12-04T00:45:02;5.60;93.50
58554;DHT22;48119;53.218;6.576;2022-12-04T00:47:28;5.60;93.50
58554;DHT22;48119;53.218;6.576;2022-12-04T00:49:54;5.60;93.50
58554;DHT22;48119;53.218;6.576;2022-12-04T00:52:20;5.60;93.50
58554;DHT22;48119;53.218;6.576;2022-12-04T00:54:46;5.60;93.50
58554;DHT22;48119;53.218;6.576;2022-12-04T00:57:12;5.70;93.50
58554;DHT22;48119;53.218;6.576;2022-12-04T00:59:38;5.60;93.40
58554;DHT22;48119;53.218;6.576;2022-12-04T01:02:08;5.60;93.30
58554;DHT22;48119;53.218;6.576;2022-12-04T01:04:34;5.60;93.20
58554;DHT22;48119;53.218;6.576;2022-12-04T01:07:00;5.60;93.30
58554;DHT22;48119;53.218;6.576;2022-12-04T01:09:26;5.50;93.30
58554;DHT22;48119;53.218;6.576;2022-12-04T01:11:52;5.50;93.30
58554;DHT22;48119;53.218;6.576;2022-12-04T01:14:18;5.50;93.30
58554;DHT22;48119;53.218;6.576;2022-12-04T01:16:45;5.50;93.40
58554;DHT22;48119;53.218;6.576;2022-12-04T01:19:11;5.40;93.40
58554;DHT22;48119;53.218;6.576;2022-12-04T01:21:37;5.40;93.50
58554;DHT22;48119;53.218;6.576;2022-12-04T01:24:09;5.40;93.50
58554;DHT22;48119;53.218;6.576;2022-12-04T01:26:35;5.40;93.60
58554;DHT22;48119;53.218;6.576;2022-12-04T01:29:02;5.40;93.60
58554;DHT22;48119;53.218;6.576;2022-12-04T01:31:28;5.40;93.70
58554;DHT22;48119;53.218;6.576;2022-12-04T01:33:54;5.30;93.70
58554;DHT22;48119;53.218;6.576;2022-12-04T01:36:23;5.30;93.80
58554;DHT22;48119;53.218;6.576;2022-12-04T01:38:51;5.30;93.70
58554;DHT22;48119;53.218;6.576;2022-12-04T01:41:21;5.30;93.80
58554;DHT22;48119;53.218;6.576;2022-12-04T01:44:11;5.30;93.80
58554;DHT22;48119;53.218;6.576;2022-12-04T01:46:41;5.30;93.70
58554;DHT22;48119;53.218;6.576;2022-12-04T01:49:33;5.30;93.40
58554;DHT22;48119;53.218;6.576;2022-12-04T01:51:58;5.30;93.70
58554;DHT22;48119;53.218;6.576;2022-12-04T01:54:29;5.30;93.70
58554;DHT22;48119;53.218;6.576;2022-12-04T01:57:11;5.30;93.60
58554;DHT22;48119;53.218;6.576;2022-12-04T01:59:49;5.30;93.50
58554;DHT22;48119;53.218;6.576;2022-12-04T02:02:18;5.30;93.60
58554;DHT22;48119;53.218;6.576;2022-12-04T02:04:47;5.30;93.60
58554;DHT22;48119;53.218;6.576;2022-12-04T02:07:13;5.30;93.70
58554;DHT22;48119;53.218;6.576;2022-12-04T02:09:40;5.30;93.70
58554;DHT22;48119;53.218;6.576;2022-12-04T02:17:41;5.40;93.80
58554;DHT22;48119;53.218;6.576;2022-12-04T02:28:55;5.40;93.90
58554;DHT22;48119;53.218;6.576;2022-12-04T02:31:30;5.40;93.90
58554;DHT22;48119;53.218;6.576;2022-12-04T02:33:59;5.30;93.90
58554;DHT22;48119;53.218;6.576;2022-12-04T02:36:30;5.30;94.00
58554;DHT22;48119;53.218;6.576;2022-12-04T02:39:29;5.40;94.00
58554;DHT22;48119;53.218;6.576;2022-12-04T02:42:10;5.30;93.70
58554;DHT22;48119;53.218;6.576;2022-12-04T02:44:46;5.40;93.70
58554;DHT22;48119;53.218;6.576;2022-12-04T02:47:17;5.40;93.60
58554;DHT22;48119;53.218;6.576;2022-12-04T02:49:48;5.40;93.50
58554;DHT22;48119;53.218;6.576;2022-12-04T02:52:19;5.30;93.50
58554;DHT22;48119;53.218;6.576;2022-12-04T02:54:49;5.40;93.50
58554;DHT22;48119;53.218;6.576;2022-12-04T02:57:23;5.30;93.50
58554;DHT22;48119;53.218;6.576;2022-12-04T02:59:51;5.30;93.50
58554;DHT22;48119;53.218;6.576;2022-12-04T03:04:55;5.30;93.50
58554;DHT22;48119;53.218;6.576;2022-12-04T03:07:39;5.30;93.60
58554;DHT22;48119;53.218;6.576;2022-12-04T03:10:10;5.30;93.60
58554;DHT22;48119;53.218;6.576;2022-12-04T03:12:54;5.30;93.70
58554;DHT22;48119;53.218;6.576;2022-12-04T03:15:31;5.20;93.70
58554;DHT22;48119;53.218;6.576;2022-12-04T03:18:08;5.20;93.70
58554;DHT22;48119;53.218;6.576;2022-12-04T03:20:36;5.10;93.70
58554;DHT22;48119;53.218;6.576;2022-12-04T03:23:10;5.20;93.80
58554;DHT22;48119;53.218;6.576;2022-12-04T03:25:56;5.20;93.80
58554;DHT22;48119;53.218;6.576;2022-12-04T03:28:38;5.20;93.80
58554;DHT22;48119;53.218;6.576;2022-12-04T03:31:08;5.20;93.90
58554;DHT22;48119;53.218;6.576;2022-12-04T03:33:44;5.20;93.90
58554;DHT22;48119;53.218;6.576;2022-12-04T03:36:24;5.10;93.90
58554;DHT22;48119;53.218;6.576;2022-12-04T03:39:05;5.20;94.00
58554;DHT22;48119;53.218;6.576;2022-12-04T03:44:38;5.20;94.10
58554;DHT22;48119;53.218;6.576;2022-12-04T03:47:30;5.20;94.10
58554;DHT22;48119;53.218;6.576;2022-12-04T03:50:02;5.10;94.10
58554;DHT22;48119;53.218;6.576;2022-12-04T03:53:14;5.20;94.10
58554;DHT22;48119;53.218;6.576;2022-12-04T03:55:53;5.20;94.10
58554;DHT22;48119;53.218;6.576;2022-12-04T03:58:28;5.10;94.20
58554;DHT22;48119;53.218;6.576;2022-12-04T04:00:56;5.20;94.30
58554;DHT22;48119;53.218;6.576;2022-12-04T04:03:26;5.10;94.30
58554;DHT22;48119;53.218;6.576;2022-12-04T04:05:57;5.10;94.40
58554;DHT22;48119;53.218;6.576;2022-12-04T04:08:28;5.10;94.40
58554;DHT22;48119;53.218;6.576;2022-12-04T04:11:17;5.10;94.50
58554;DHT22;48119;53.218;6.576;2022-12-04T04:13:53;5.10;94.50
58554;DHT22;48119;53.218;6.576;2022-12-04T04:16:45;5.10;94.50
58554;DHT22;48119;53.218;6.576;2022-12-04T04:19:34;5.10;94.50
58554;DHT22;48119;53.218;6.576;2022-12-04T04:22:19;5.00;94.50
58554;DHT22;48119;53.218;6.576;2022-12-04T04:25:09;5.00;94.60
58554;DHT22;48119;53.218;6.576;2022-12-04T04:27:35;5.00;94.70
58554;DHT22;48119;53.218;6.576;2022-12-04T04:30:01;5.00;94.80
58554;DHT22;48119;53.218;6.576;2022-12-04T04:40:44;5.00;95.00
58554;DHT22;48119;53.218;6.576;2022-12-04T04:43:39;5.00;95.00
58554;DHT22;48119;53.218;6.576;2022-12-04T04:46:22;5.00;95.10
58554;DHT22;48119;53.218;6.576;2022-12-04T04:48:51;5.00;95.00
58554;DHT22;48119;53.218;6.576;2022-12-04T04:51:19;4.90;95.10
58554;DHT22;48119;53.218;6.576;2022-12-04T04:53:51;4.90;95.10
58554;DHT22;48119;53.218;6.576;2022-12-04T04:56:19;5.00;95.10
58554;DHT22;48119;53.218;6.576;2022-12-04T04:58:45;5.00;95.20
58554;DHT22;48119;53.218;6.576;2022-12-04T05:01:14;5.00;95.20
58554;DHT22;48119;53.218;6.576;2022-12-04T05:03:41;5.00;95.20
58554;DHT22;48119;53.218;6.576;2022-12-04T05:06:08;5.00;95.20
58554;DHT22;48119;53.218;6.576;2022-12-04T05:08:35;5.00;95.30
58554;DHT22;48119;53.218;6.576;2022-12-04T05:11:02;4.90;95.30
58554;DHT22;48119;53.218;6.576;2022-12-04T05:13:29;4.90;95.40
58554;DHT22;48119;53.218;6.576;2022-12-04T05:16:00;4.90;95.40
58554;DHT22;48119;53.218;6.576;2022-12-04T05:18:26;5.00;95.40
58554;DHT22;48119;53.218;6.576;2022-12-04T05:20:52;5.00;95.50
58554;DHT22;48119;53.218;6.576;2022-12-04T05:23:17;5.00;95.40
58554;DHT22;48119;53.218;6.576;2022-12-04T05:25:43;5.00;95.40
58554;DHT22;48119;53.218;6.576;2022-12-04T05:28:09;5.00;95.30
58554;DHT22;48119;53.218;6.576;2022-12-04T05:30:35;5.00;95.40
58554;DHT22;48119;53.218;6.576;2022-12-04T05:33:00;4.90;95.40
58554;DHT22;48119;53.218;6.576;2022-12-04T05:35:26;5.00;95.40
58554;DHT22;48119;53.218;6.576;2022-12-04T05:37:52;5.00;95.40
58554;DHT22;48119;53.218;6.576;2022-12-04T05:40:18;4.90;95.40
58554;DHT22;48119;53.218;6.576;2022-12-04T05:42:43;4.90;95.50
58554;DHT22;48119;53.218;6.576;2022-12-04T05:45:09;4.90;95.50
58554;DHT22;48119;53.218;6.576;2022-12-04T05:47:39;4.90;95.50
58554;DHT22;48119;53.218;6.576;2022-12-04T05:50:06;4.90;95.40
58554;DHT22;48119;53.218;6.576;2022-12-04T05:52:32;5.00;95.50
58554;DHT22;48119;53.218;6.576;2022-12-04T05:54:58;4.90;95.50
58554;DHT22;48119;53.218;6.576;2022-12-04T05:57:24;4.90;95.50
58554;DHT22;48119;53.218;6.576;2022-12-04T05:59:50;5.00;95.50
58554;DHT22;48119;53.218;6.576;2022-12-04T06:02:16;5.00;95.50
58554;DHT22;48119;53.218;6.576;2022-12-04T06:04:41;5.00;95.50
58554;DHT22;48119;53.218;6.576;2022-12-04T06:07:09;5.00;95.50
58554;DHT22;48119;53.218;6.576;2022-12-04T06:09:34;5.00;95.50
58554;DHT22;48119;53.218;6.576;2022-12-04T06:12:00;5.10;95.50
58554;DHT22;48119;53.218;6.576;2022-12-04T06:14:26;5.00;95.60
58554;DHT22;48119;53.218;6.576;2022-12-04T06:16:52;5.00;95.60
58554;DHT22;48119;53.218;6.576;2022-12-04T06:19:18;5.00;95.70
58554;DHT22;48119;53.218;6.576;2022-12-04T06:21:46;5.00;95.70
58554;DHT22;48119;53.218;6.576;2022-12-04T06:24:16;5.00;95.70
58554;DHT22;48119;53.218;6.576;2022-12-04T06:26:42;5.00;95.80
58554;DHT22;48119;53.218;6.576;2022-12-04T06:29:09;5.10;95.80
58554;DHT22;48119;53.218;6.576;2022-12-04T06:31:36;5.00;95.80
58554;DHT22;48119;53.218;6.576;2022-12-04T06:34:03;5.10;96.10
58554;DHT22;48119;53.218;6.576;2022-12-04T06:36:30;5.10;95.80
58554;DHT22;48119;53.218;6.576;2022-12-04T06:38:56;5.10;95.80
58554;DHT22;48119;53.218;6.576;2022-12-04T06:41:23;5.10;95.80
58554;DHT22;48119;53.218;6.576;2022-12-04T06:43:50;5.20;95.70
58554;DHT22;48119;53.218;6.576;2022-12-04T06:46:21;5.10;95.80
58554;DHT22;48119;53.218;6.576;2022-12-04T06:48:47;5.10;96.00
58554;DHT22;48119;53.218;6.576;2022-12-04T06:51:19;5.20;96.10
58554;DHT22;48119;53.218;6.576;2022-12-04T06:53:45;5.20;96.20
58554;DHT22;48119;53.218;6.576;2022-12-04T06:56:14;5.10;96.20
58554;DHT22;48119;53.218;6.576;2022-12-04T06:58:43;5.20;96.30
58554;DHT22;48119;53.218;6.576;2022-12-04T07:01:12;5.20;96.30
58554;DHT22;48119;53.218;6.576;2022-12-04T07:03:40;5.20;96.40
58554;DHT22;48119;53.218;6.576;2022-12-04T07:06:14;5.20;96.30
58554;DHT22;48119;53.218;6.576;2022-12-04T07:08:41;5.20;96.40
58554;DHT22;48119;53.218;6.576;2022-12-04T07:11:07;5.20;96.50
58554;DHT22;48119;53.218;6.576;2022-12-04T07:13:32;5.20;96.60
58554;DHT22;48119;53.218;6.576;2022-12-04T07:16:00;5.20;96.60
58554;DHT22;48119;53.218;6.576;2022-12-04T07:18:27;5.20;96.60
58554;DHT22;48119;53.218;6.576;2022-12-04T07:20:53;5.30;96.60
58554;DHT22;48119;53.218;6.576;2022-12-04T07:23:19;5.20;96.70
58554;DHT22;48119;53.218;6.576;2022-12-04T07:25:45;5.20;96.80
58554;DHT22;48119;53.218;6.576;2022-12-04T07:28:10;5.20;96.90
58554;DHT22;48119;53.218;6.576;2022-12-04T07:30:37;5.20;96.90
58554;DHT22;48119;53.218;6.576;2022-12-04T07:33:03;5.10;97.10
58554;DHT22;48119;53.218;6.576;2022-12-04T07:35:29;5.10;97.10
58554;DHT22;48119;53.218;6.576;2022-12-04T07:37:55;5.10;97.20
58554;DHT22;48119;53.218;6.576;2022-12-04T07:40:21;5.10;97.20
58554;DHT22;48119;53.218;6.576;2022-12-04T07:42:46;5.20;97.20
58554;DHT22;48119;53.218;6.576;2022-12-04T07:45:12;5.10;97.20
58554;DHT22;48119;53.218;6.576;2022-12-04T07:47:38;5.10;97.40
58554;DHT22;48119;53.218;6.576;2022-12-04T07:50:04;5.10;97.50
58554;DHT22;48119;53.218;6.576;2022-12-04T07:52:35;5.10;97.40
58554;DHT22;48119;53.218;6.576;2022-12-04T07:55:01;5.20;97.40
58554;DHT22;48119;53.218;6.576;2022-12-04T07:57:27;5.10;97.50
58554;DHT22;48119;53.218;6.576;2022-12-04T07:59:53;5.10;97.50
58554;DHT22;48119;53.218;6.576;2022-12-04T08:02:19;5.20;97.60
58554;DHT22;48119;53.218;6.576;2022-12-04T08:04:45;5.20;97.60
58554;DHT22;48119;53.218;6.576;2022-12-04T08:07:11;5.20;97.70
58554;DHT22;48119;53.218;6.576;2022-12-04T08:09:37;5.10;97.90
58554;DHT22;48119;53.218;6.576;2022-12-04T08:12:03;5.20;97.70
58554;DHT22;48119;53.218;6.576;2022-12-04T08:14:29;5.20;97.70
58554;DHT22;48119;53.218;6.576;2022-12-04T08:16:54;5.20;97.70
58554;DHT22;48119;53.218;6.576;2022-12-04T08:19:21;5.30;97.80
58554;DHT22;48119;53.218;6.576;2022-12-04T08:21:46;5.20;97.80
58554;DHT22;48119;53.218;6.576;2022-12-04T08:24:12;5.20;97.80
58554;DHT22;48119;53.218;6.576;2022-12-04T08:26:38;5.20;97.90
58554;DHT22;48119;53.218;6.576;2022-12-04T08:29:04;5.20;98.00
58554;DHT22;48119;53.218;6.576;2022-12-04T08:31:33;5.20;98.10
58554;DHT22;48119;53.218;6.576;2022-12-04T08:34:01;5.30;98.10
58554;DHT22;48119;53.218;6.576;2022-12-04T08:36:27;5.30;98.00
58554;DHT22;48119;53.218;6.576;2022-12-04T08:38:54;5.30;97.90
58554;DHT22;48119;53.218;6.576;2022-12-04T08:41:22;5.30;97.90
58554;DHT22;48119;53.218;6.576;2022-12-04T08:43:49;5.30;97.90
58554;DHT22;48119;53.218;6.576;2022-12-04T08:46:16;5.30;98.00
58554;DHT22;48119;53.218;6.576;2022-12-04T08:48:42;5.30;98.00
58554;DHT22;48119;53.218;6.576;2022-12-04T08:51:13;5.30;98.00
58554;DHT22;48119;53.218;6.576;2022-12-04T08:53:39;5.40;98.00
58554;DHT22;48119;53.218;6.576;2022-12-04T08:56:05;5.30;98.00
58554;DHT22;48119;53.218;6.576;2022-12-04T08:58:31;5.30;97.90
58554;DHT22;48119;53.218;6.576;2022-12-04T09:01:03;5.40;97.90
58554;DHT22;48119;53.218;6.576;2022-12-04T09:03:30;5.40;97.80
58554;DHT22;48119;53.218;6.576;2022-12-04T09:05:58;5.40;97.80
58554;DHT22;48119;53.218;6.576;2022-12-04T09:08:24;5.40;97.80
58554;DHT22;48119;53.218;6.576;2022-12-04T09:10:50;5.40;97.70
58554;DHT22;48119;53.218;6.576;2022-12-04T09:13:16;5.40;97.80
58554;DHT22;48119;53.218;6.576;2022-12-04T09:15:41;5.40;97.80
58554;DHT22;48119;53.218;6.576;2022-12-04T09:18:07;5.50;97.80
58554;DHT22;48119;53.218;6.576;2022-12-04T09:20:33;5.40;97.80
58554;DHT22;48119;53.218;6.576;2022-12-04T09:22:59;5.50;97.80
58554;DHT22;48119;53.218;6.576;2022-12-04T09:25:25;5.50;97.70
58554;DHT22;48119;53.218;6.576;2022-12-04T09:27:51;5.50;97.60
58554;DHT22;48119;53.218;6.576;2022-12-04T09:30:16;5.50;97.60
58554;DHT22;48119;53.218;6.576;2022-12-04T09:32:42;5.60;97.60
58554;DHT22;48119;53.218;6.576;2022-12-04T09:35:08;5.70;97.60
58554;DHT22;48119;53.218;6.576;2022-12-04T09:37:34;5.60;97.40
58554;DHT22;48119;53.218;6.576;2022-12-04T09:40:04;5.60;97.40
58554;DHT22;48119;53.218;6.576;2022-12-04T09:42:39;5.70;97.30
58554;DHT22;48119;53.218;6.576;2022-12-04T09:45:19;5.70;97.30
58554;DHT22;48119;53.218;6.576;2022-12-04T09:47:49;5.70;97.20
58554;DHT22;48119;53.218;6.576;2022-12-04T09:50:36;5.70;97.20
58554;DHT22;48119;53.218;6.576;2022-12-04T09:53:22;5.80;97.20
58554;DHT22;48119;53.218;6.576;2022-12-04T09:56:03;5.80;97.20
58554;DHT22;48119;53.218;6.576;2022-12-04T10:01:05;5.80;97.10
58554;DHT22;48119;53.218;6.576;2022-12-04T10:03:38;5.80;97.10
58554;DHT22;48119;53.218;6.576;2022-12-04T10:06:15;5.80;97.10
58554;DHT22;48119;53.218;6.576;2022-12-04T10:08:50;5.80;97.10
58554;DHT22;48119;53.218;6.576;2022-12-04T10:11:43;5.80;97.10
58554;DHT22;48119;53.218;6.576;2022-12-04T10:17:43;5.90;96.90
58554;DHT22;48119;53.218;6.576;2022-12-04T10:25:43;5.90;96.80
58554;DHT22;48119;53.218;6.576;2022-12-04T10:28:26;5.90;96.90
58554;DHT22;48119;53.218;6.576;2022-12-04T10:30:58;5.90;96.70
58554;DHT22;48119;53.218;6.576;2022-12-04T10:33:39;5.90;96.70
58554;DHT22;48119;53.218;6.576;2022-12-04T10:36:11;5.90;96.60
58554;DHT22;48119;53.218;6.576;2022-12-04T10:41:35;5.90;96.50
58554;DHT22;48119;53.218;6.576;2022-12-04T10:44:03;5.90;96.40
58554;DHT22;48119;53.218;6.576;2022-12-04T10:46:32;5.90;96.50
58554;DHT22;48119;53.218;6.576;2022-12-04T10:49:02;5.90;96.50
58554;DHT22;48119;53.218;6.576;2022-12-04T10:51:39;5.90;96.40
58554;DHT22;48119;53.218;6.576;2022-12-04T10:56:50;5.90;96.40
58554;DHT22;48119;53.218;6.576;2022-12-04T10:59:16;5.90;96.30
58554;DHT22;48119;53.218;6.576;2022-12-04T11:01:42;5.90;96.20
58554;DHT22;48119;53.218;6.576;2022-12-04T11:04:19;6.00;96.10
58554;DHT22;48119;53.218;6.576;2022-12-04T11:06:47;6.00;96.10
58554;DHT22;48119;53.218;6.576;2022-12-04T11:09:24;6.00;96.00
58554;DHT22;48119;53.218;6.576;2022-12-04T11:11:50;6.00;95.90
58554;DHT22;48119;53.218;6.576;2022-12-04T11:14:20;6.00;95.90
58554;DHT22;48119;53.218;6.576;2022-12-04T11:16:49;6.00;95.80
58554;DHT22;48119;53.218;6.576;2022-12-04T11:19:30;6.00;95.70
58554;DHT22;48119;53.218;6.576;2022-12-04T11:21:59;6.10;95.70
58554;DHT22;48119;53.218;6.576;2022-12-04T11:24:35;6.10;95.80
58554;DHT22;48119;53.218;6.576;2022-12-04T11:27:03;6.10;95.70
58554;DHT22;48119;53.218;6.576;2022-12-04T11:29:35;6.10;95.70
58554;DHT22;48119;53.218;6.576;2022-12-04T11:32:02;6.10;95.70
58554;DHT22;48119;53.218;6.576;2022-12-04T11:34:38;6.10;95.70
58554;DHT22;48119;53.218;6.576;2022-12-04T11:37:14;6.20;95.60
58554;DHT22;48119;53.218;6.576;2022-12-04T11:39:43;6.10;95.60
58554;DHT22;48119;53.218;6.576;2022-12-04T11:44:39;6.10;95.70
58554;DHT22;48119;53.218;6.576;2022-12-04T11:47:13;6.10;95.70
58554;DHT22;48119;53.218;6.576;2022-12-04T11:49:41;6.10;95.70
58554;DHT22;48119;53.218;6.576;2022-12-04T11:52:44;6.10;95.60
58554;DHT22;48119;53.218;6.576;2022-12-04T11:55:20;6.10;95.40
58554;DHT22;48119;53.218;6.576;2022-12-04T12:00:25;6.10;95.60
58554;DHT22;48119;53.218;6.576;2022-12-04T12:19:45;6.10;96.00
58554;DHT22;48119;53.218;6.576;2022-12-04T12:22:36;6.20;96.00
58554;DHT22;48119;53.218;6.576;2022-12-04T12:25:18;6.20;96.00
58554;DHT22;48119;53.218;6.576;2022-12-04T12:33:50;6.20;96.10
58554;DHT22;48119;53.218;6.576;2022-12-04T12:36:15;6.20;96.20
58554;DHT22;48119;53.218;6.576;2022-12-04T12:38:48;6.20;96.20
58554;DHT22;48119;53.218;6.576;2022-12-04T12:41:21;6.20;96.20
58554;DHT22;48119;53.218;6.576;2022-12-04T12:43:56;6.20;96.20
58554;DHT22;48119;53.218;6.576;2022-12-04T12:46:35;6.20;96.20
58554;DHT22;48119;53.218;6.576;2022-12-04T12:51:51;6.20;96.30
58554;DHT22;48119;53.218;6.576;2022-12-04T12:54:42;6.20;96.40
58554;DHT22;48119;53.218;6.576;2022-12-04T12:57:16;6.30;96.40
58554;DHT22;48119;53.218;6.576;2022-12-04T12:59:55;6.30;96.50
58554;DHT22;48119;53.218;6.576;2022-12-04T13:02:32;6.30;96.50
58554;DHT22;48119;53.218;6.576;2022-12-04T13:05:05;6.30;96.80
58554;DHT22;48119;53.218;6.576;2022-12-04T13:10:34;6.30;96.60
58554;DHT22;48119;53.218;6.576;2022-12-04T13:13:18;6.30;96.70
58554;DHT22;48119;53.218;6.576;2022-12-04T13:15:49;6.30;96.70
58554;DHT22;48119;53.218;6.576;2022-12-04T13:18:29;6.30;97.00
58554;DHT22;48119;53.218;6.576;2022-12-04T13:21:03;6.30;96.70
58554;DHT22;48119;53.218;6.576;2022-12-04T13:26:46;6.30;96.80
58554;DHT22;48119;53.218;6.576;2022-12-04T13:35:18;6.30;96.90
58554;DHT22;48119;53.218;6.576;2022-12-04T13:40:36;6.30;97.00
58554;DHT22;48119;53.218;6.576;2022-12-04T13:43:26;6.30;97.10
58554;DHT22;48119;53.218;6.576;2022-12-04T13:46:02;6.30;97.00
58554;DHT22;48119;53.218;6.576;2022-12-04T13:48:38;6.30;97.10
58554;DHT22;48119;53.218;6.576;2022-12-04T13:53:42;6.30;97.20
58554;DHT22;48119;53.218;6.576;2022-12-04T13:56:24;6.30;97.30
58554;DHT22;48119;53.218;6.576;2022-12-04T13:59:03;6.40;97.30
58554;DHT22;48119;53.218;6.576;2022-12-04T14:01:40;6.50;97.40
58554;DHT22;48119;53.218;6.576;2022-12-04T14:04:06;6.40;97.30
58554;DHT22;48119;53.218;6.576;2022-12-04T14:06:42;6.40;97.40
58554;DHT22;48119;53.218;6.576;2022-12-04T14:11:45;6.40;97.30
58554;DHT22;48119;53.218;6.576;2022-12-04T14:14:43;6.40;97.30
58554;DHT22;48119;53.218;6.576;2022-12-04T14:17:19;6.50;97.40
58554;DHT22;48119;53.218;6.576;2022-12-04T14:19:53;6.50;97.20
58554;DHT22;48119;53.218;6.576;2022-12-04T14:22:25;6.50;97.20
58554;DHT22;48119;53.218;6.576;2022-12-04T14:24:51;6.50;97.20
58554;DHT22;48119;53.218;6.576;2022-12-04T14:30:23;6.40;97.20
58554;DHT22;48119;53.218;6.576;2022-12-04T14:33:14;6.50;97.30
58554;DHT22;48119;53.218;6.576;2022-12-04T14:35:54;6.50;97.30
58554;DHT22;48119;53.218;6.576;2022-12-04T14:38:22;6.50;97.30
58554;DHT22;48119;53.218;6.576;2022-12-04T14:40:52;6.40;97.10
58554;DHT22;48119;53.218;6.576;2022-12-04T14:43:24;6.50;97.20
58554;DHT22;48119;53.218;6.576;2022-12-04T14:46:07;6.50;96.70
58554;DHT22;48119;53.218;6.576;2022-12-04T14:51:42;6.50;96.40
58554;DHT22;48119;53.218;6.576;2022-12-04T14:54:33;6.40;96.50
58554;DHT22;48119;53.218;6.576;2022-12-04T14:57:36;6.40;96.50
58554;DHT22;48119;53.218;6.576;2022-12-04T15:00:14;6.50;96.50
58554;DHT22;48119;53.218;6.576;2022-12-04T15:02:42;6.50;96.60
58554;DHT22;48119;53.218;6.576;2022-12-04T15:05:10;6.40;96.90
58554;DHT22;48119;53.218;6.576;2022-12-04T15:07:46;6.40;96.70
58554;DHT22;48119;53.218;6.576;2022-12-04T15:13:02;6.40;96.90
58554;DHT22;48119;53.218;6.576;2022-12-04T15:15:29;6.40;97.10
58554;DHT22;48119;53.218;6.576;2022-12-04T15:18:08;6.50;97.10
58554;DHT22;48119;53.218;6.576;2022-12-04T15:23:05;6.50;97.40
58554;DHT22;48119;53.218;6.576;2022-12-04T15:25:42;6.50;97.50
58554;DHT22;48119;53.218;6.576;2022-12-04T15:28:34;6.50;97.50
58554;DHT22;48119;53.218;6.576;2022-12-04T15:30:59;6.40;97.50
58554;DHT22;48119;53.218;6.576;2022-12-04T15:33:31;6.40;97.60
58554;DHT22;48119;53.218;6.576;2022-12-04T15:38:26;6.50;97.70
58554;DHT22;48119;53.218;6.576;2022-12-04T15:40:55;6.50;97.80
58554;DHT22;48119;53.218;6.576;2022-12-04T15:43:38;6.50;97.80
58554;DHT22;48119;53.218;6.576;2022-12-04T15:46:21;6.50;97.90
58554;DHT22;48119;53.218;6.576;2022-12-04T15:48:47;6.50;97.90
58554;DHT22;48119;53.218;6.576;2022-12-04T15:51:14;6.50;98.00
58554;DHT22;48119;53.218;6.576;2022-12-04T15:53:44;6.50;98.00
58554;DHT22;48119;53.218;6.576;2022-12-04T15:56:17;6.50;98.10
58554;DHT22;48119;53.218;6.576;2022-12-04T15:59:15;6.40;98.20
58554;DHT22;48119;53.218;6.576;2022-12-04T16:01:41;6.40;98.30
58554;DHT22;48119;53.218;6.576;2022-12-04T16:04:22;6.40;98.50
58554;DHT22;48119;53.218;6.576;2022-12-04T16:06:50;6.40;98.40
58554;DHT22;48119;53.218;6.576;2022-12-04T16:09:26;6.40;98.40
58554;DHT22;48119;53.218;6.576;2022-12-04T16:12:00;6.50;98.50
58554;DHT22;48119;53.218;6.576;2022-12-04T16:14:26;6.50;98.40
58554;DHT22;48119;53.218;6.576;2022-12-04T16:16:55;6.50;98.40
58554;DHT22;48119;53.218;6.576;2022-12-04T16:19:31;6.50;98.40
58554;DHT22;48119;53.218;6.576;2022-12-04T16:21:58;6.60;98.40
58554;DHT22;48119;53.218;6.576;2022-12-04T16:24:24;6.50;98.40
58554;DHT22;48119;53.218;6.576;2022-12-04T16:26:51;6.50;98.50
58554;DHT22;48119;53.218;6.576;2022-12-04T16:29:19;6.50;98.50
58554;DHT22;48119;53.218;6.576;2022-12-04T16:31:45;6.50;98.50
58554;DHT22;48119;53.218;6.576;2022-12-04T16:34:11;6.50;98.50
58554;DHT22;48119;53.218;6.576;2022-12-04T16:36:38;6.50;98.50
58554;DHT22;48119;53.218;6.576;2022-12-04T16:39:04;6.50;98.50
58554;DHT22;48119;53.218;6.576;2022-12-04T16:41:30;6.60;98.50
58554;DHT22;48119;53.218;6.576;2022-12-04T16:43:58;6.60;98.50
58554;DHT22;48119;53.218;6.576;2022-12-04T16:46:26;6.70;98.50
58554;DHT22;48119;53.218;6.576;2022-12-04T16:48:52;6.60;98.40
58554;DHT22;48119;53.218;6.576;2022-12-04T16:51:21;6.60;98.40
58554;DHT22;48119;53.218;6.576;2022-12-04T16:53:48;6.60;98.40
58554;DHT22;48119;53.218;6.576;2022-12-04T16:56:13;6.70;98.50
58554;DHT22;48119;53.218;6.576;2022-12-04T16:58:39;6.60;98.50
58554;DHT22;48119;53.218;6.576;2022-12-04T17:01:14;6.60;98.50
58554;DHT22;48119;53.218;6.576;2022-12-04T17:03:42;6.70;98.50
58554;DHT22;48119;53.218;6.576;2022-12-04T17:06:08;6.70;98.60
58554;DHT22;48119;53.218;6.576;2022-12-04T17:08:33;6.70;98.60
58554;DHT22;48119;53.218;6.576;2022-12-04T17:10:59;6.70;98.60
58554;DHT22;48119;53.218;6.576;2022-12-04T17:13:25;6.70;98.70
58554;DHT22;48119;53.218;6.576;2022-12-04T17:15:51;6.70;98.70
58554;DHT22;48119;53.218;6.576;2022-12-04T17:18:17;6.70;98.60
58554;DHT22;48119;53.218;6.576;2022-12-04T17:20:43;6.70;98.60
58554;DHT22;48119;53.218;6.576;2022-12-04T17:23:11;6.70;98.60
58554;DHT22;48119;53.218;6.576;2022-12-04T17:25:37;6.70;98.60
58554;DHT22;48119;53.218;6.576;2022-12-04T17:28:03;6.80;98.60
58554;DHT22;48119;53.218;6.576;2022-12-04T17:30:29;6.80;98.60
58554;DHT22;48119;53.218;6.576;2022-12-04T17:32:55;6.70;98.60
58554;DHT22;48119;53.218;6.576;2022-12-04T17:35:21;6.70;98.70
58554;DHT22;48119;53.218;6.576;2022-12-04T17:37:47;6.70;98.80
58554;DHT22;48119;53.218;6.576;2022-12-04T17:40:13;6.70;98.70
58554;DHT22;48119;53.218;6.576;2022-12-04T17:42:40;6.80;98.80
58554;DHT22;48119;53.218;6.576;2022-12-04T17:45:07;6.70;98.80
58554;DHT22;48119;53.218;6.576;2022-12-04T17:47:36;6.70;99.00
58554;DHT22;48119;53.218;6.576;2022-12-04T17:50:05;6.80;98.80
58554;DHT22;48119;53.218;6.576;2022-12-04T17:52:31;6.80;98.80
58554;DHT22;48119;53.218;6.576;2022-12-04T17:54:57;6.80;98.80
58554;DHT22;48119;53.218;6.576;2022-12-04T17:57:22;6.80;98.80
58554;DHT22;48119;53.218;6.576;2022-12-04T17:59:49;6.80;98.80